Time;durP1;ratioP1;P1;durP2;ratioP2;P2;SDS_P1;SDS_P2;PMS_P1;PMS_P2;Temp;Humidity;BMP_temperature;BMP_pressure;BME280_temperature;BME280_humidity;BME280_pressure;Samples;Min_cycle;Max_cycle;Signal;HPM_P1;HPM_P2
2023/01/13 00:00:46;;;;;;;1.97;0.70;;;;;;;-145.69;100.00;52523.59;5073238;28;20665;-80
2023/01/13 00:03:13;;;;;;;2.13;0.60;;;;;;;-145.69;100.00;52511.72;5073755;28;20206;-82
2023/01/13 00:05:39;;;;;;;6.03;0.80;;;;;;;-145.69;100.00;52531.53;5073844;28;20738;-82
2023/01/13 00:08:06;;;;;;;7.30;0.67;;;;;;;-145.69;100.00;52509.75;5073706;28;20206;-82
2023/01/13 00:10:34;;;;;;;1.57;0.67;;;;;;;-145.69;100.00;52527.56;5073844;28;20198;-82
2023/01/13 00:13:01;;;;;;;2.10;0.70;;;;;;;-145.69;100.00;52515.69;5073681;28;20684;-82
2023/01/13 00:15:27;;;;;;;1.93;0.70;;;;;;;-145.69;100.00;52527.56;5073478;28;20563;-81
2023/01/13 00:17:54;;;;;;;0.87;0.50;;;;;;;-145.69;100.00;52519.63;5073462;28;20191;-82
2023/01/13 00:20:21;;;;;;;1.67;0.53;;;;;;;-145.69;100.00;52499.84;5073995;28;20604;-82
2023/01/13 00:22:47;;;;;;;2.53;0.83;;;;;;;-145.69;100.00;52563.22;5073487;28;20195;-83
2023/01/13 00:25:13;;;;;;;2.60;0.90;;;;;;;-145.69;100.00;52545.38;5073563;28;20227;-83
2023/01/13 00:27:41;;;;;;;3.27;0.53;;;;;;;-145.69;100.00;52577.06;5073529;28;20199;-82
2023/01/13 00:30:09;;;;;;;2.40;0.50;;;;;;;-145.69;100.00;52539.44;5073372;28;20685;-82
2023/01/13 00:32:35;;;;;;;0.57;0.53;;;;;;;-145.69;100.00;52533.50;5073013;28;20187;-82
2023/01/13 00:35:02;;;;;;;3.30;0.73;;;;;;;-145.69;100.00;52523.59;5073081;28;20571;-82
2023/01/13 00:37:29;;;;;;;5.00;0.80;;;;;;;-145.69;100.00;52487.97;5073589;28;20198;-81
2023/01/13 00:39:56;;;;;;;1.90;0.70;;;;;;;-145.69;100.00;52519.63;5073457;28;20202;-82
2023/01/13 00:45:09;;;;;;;3.07;0.73;;;;;;;-145.69;100.00;52539.44;5073177;28;20635;-82
2023/01/13 00:47:35;;;;;;;1.13;0.67;;;;;;;-145.69;100.00;52531.53;5073369;28;20199;-81
2023/01/13 00:50:02;;;;;;;0.50;0.50;;;;;;;-145.69;100.00;52511.72;5072933;28;20195;-82
2023/01/13 00:52:28;;;;;;;3.00;0.67;;;;;;;-145.69;100.00;52557.28;5072513;28;20220;-81
2023/01/13 00:54:55;;;;;;;0.87;0.50;;;;;;;-145.69;100.00;52535.47;5072686;28;20198;-82
2023/01/13 00:57:21;;;;;;;0.70;0.60;;;;;;;-145.69;100.00;52531.53;5073312;28;20230;-82
2023/01/13 00:59:48;;;;;;;2.63;0.60;;;;;;;-145.69;100.00;52549.34;5072787;28;20585;-81
2023/01/13 01:02:15;;;;;;;2.60;0.50;;;;;;;-145.69;100.00;52517.66;5073160;28;20248;-82
2023/01/13 01:04:42;;;;;;;0.80;0.57;;;;;;;-145.69;100.00;52531.53;5072979;28;20233;-82
2023/01/13 01:07:08;;;;;;;2.77;0.70;;;;;;;-145.69;100.00;52509.75;5073353;28;20565;-82
2023/01/13 01:09:35;;;;;;;2.10;0.53;;;;;;;-145.69;100.00;52565.19;5073211;28;20199;-82
2023/01/13 01:12:01;;;;;;;2.23;0.63;;;;;;;-145.69;100.00;52547.38;5073204;28;20205;-82
2023/01/13 01:14:28;;;;;;;4.50;0.80;;;;;;;-145.69;100.00;52541.44;5073105;28;20234;-83
2023/01/13 01:16:54;;;;;;;2.10;0.60;;;;;;;-145.69;100.00;52541.44;5073202;28;20203;-83
2023/01/13 01:19:22;;;;;;;2.13;0.60;;;;;;;-145.69;100.00;52531.53;5073038;28;20206;-83
2023/01/13 01:21:48;;;;;;;4.70;0.80;;;;;;;-145.69;100.00;52551.31;5073673;28;20240;-83
2023/01/13 01:24:15;;;;;;;2.10;0.63;;;;;;;-145.69;100.00;52517.66;5076902;28;20385;-83
2023/01/13 01:26:42;;;;;;;1.97;0.60;;;;;;;-145.69;100.00;52519.63;5077242;28;20237;-83
2023/01/13 01:29:12;;;;;;;2.07;0.73;;;;;;;-145.69;100.00;52551.31;5076937;28;20205;-83
2023/01/13 01:31:38;;;;;;;0.80;0.63;;;;;;;-145.69;100.00;52503.81;5076652;28;20191;-83
2023/01/13 01:34:05;;;;;;;1.83;0.67;;;;;;;-145.69;100.00;52519.63;5077090;28;20203;-83
2023/01/13 01:36:33;;;;;;;1.77;0.50;;;;;;;-145.69;100.00;52525.59;5076780;28;20195;-82
2023/01/13 01:39:00;;;;;;;0.50;0.50;;;;;;;-145.69;100.00;52535.47;5076768;28;20199;-82
2023/01/13 01:41:28;;;;;;;4.57;0.67;;;;;;;-145.69;100.00;52563.22;5076811;28;20205;-82
2023/01/13 01:43:58;;;;;;;2.23;0.50;;;;;;;-145.69;100.00;52539.44;5076647;28;20234;-80
2023/01/13 01:46:27;;;;;;;2.20;1.00;;;;;;;-145.69;100.00;52539.44;5076393;28;20585;-82
2023/01/13 01:48:58;;;;;;;0.77;0.70;;;;;;;-145.69;100.00;52531.53;5076409;28;20202;-82
2023/01/13 01:51:25;;;;;;;2.03;0.53;;;;;;;-145.69;100.00;52541.44;5076459;28;20214;-82
2023/01/13 01:53:55;;;;;;;0.67;0.67;;;;;;;-145.69;100.00;52533.50;5075926;28;20203;-82
2023/01/13 01:56:22;;;;;;;2.07;0.60;;;;;;;-145.69;100.00;52539.44;5056420;28;20207;-81
2023/01/13 01:58:51;;;;;;;1.07;0.60;;;;;;;-145.69;100.00;52511.72;5056460;28;20203;-81
2023/01/13 02:01:18;;;;;;;1.20;0.50;;;;;;;-145.69;100.00;52535.47;5056627;28;20203;-82
2023/01/13 02:03:52;;;;;;;6.90;0.77;;;;;;;-145.69;100.00;52521.63;5076196;28;20226;-82
2023/01/13 02:06:19;;;;;;;2.27;0.60;;;;;;;-145.69;100.00;52533.50;5076297;28;20215;-82
2023/01/13 02:08:47;;;;;;;0.63;0.43;;;;;;;-145.69;100.00;52519.63;5076319;28;20210;-82
2023/01/13 02:14:14;;;;;;;7.50;0.90;;;;;;;-145.69;100.00;52525.59;5075633;28;20561;-81
2023/01/13 02:16:48;;;;;;;1.30;0.70;;;;;;;-145.69;100.00;52567.16;5075836;28;20206;-82
2023/01/13 02:19:35;;;;;;;3.23;0.70;;;;;;;-145.69;100.00;52545.38;5076027;28;20207;-81
2023/01/13 02:22:26;;;;;;;1.63;0.50;;;;;;;-145.69;100.00;52527.56;5075689;28;20206;-82
2023/01/13 02:25:16;;;;;;;0.97;0.57;;;;;;;-145.69;100.00;52515.69;5072049;28;20250;-82
2023/01/13 02:28:02;;;;;;;2.30;0.70;;;;;;;-145.69;100.00;52533.50;5075767;28;20199;-81
2023/01/13 02:33:43;;;;;;;3.77;0.50;;;;;;;-145.69;100.00;52519.63;5074041;28;20676;-82
2023/01/13 02:36:18;;;;;;;0.80;0.50;;;;;;;-145.69;100.00;52535.47;5075857;28;20198;-81
2023/01/13 02:38:51;;;;;;;1.00;0.40;;;;;;;-145.69;100.00;52547.38;5075468;28;20198;-82
2023/01/13 02:44:14;;;;;;;0.47;0.47;;;;;;;-145.69;100.00;52555.28;5074890;28;20245;-81
2023/01/13 02:46:49;;;;;;;1.47;0.67;;;;;;;-145.69;100.00;52515.69;5075498;28;20232;-82
2023/01/13 02:49:23;;;;;;;3.93;0.73;;;;;;;-145.69;100.00;52551.31;5075268;28;20205;-82
2023/01/13 02:51:52;;;;;;;1.47;0.60;;;;;;;-145.69;100.00;52533.50;5075386;28;20206;-82
2023/01/13 02:54:24;;;;;;;3.80;0.67;;;;;;;-145.69;100.00;52547.38;5075375;28;20201;-82
2023/01/13 02:56:54;;;;;;;1.00;0.60;;;;;;;-145.69;100.00;52598.84;5074878;28;20230;-82
2023/01/13 02:59:25;;;;;;;2.23;0.60;;;;;;;-145.69;100.00;52539.44;5075091;28;20677;-80
2023/01/13 03:01:55;;;;;;;1.73;0.73;;;;;;;-145.69;100.00;52523.59;5074907;28;20213;-81
2023/01/13 03:04:44;;;;;;;2.73;0.63;;;;;;;-145.69;100.00;52543.41;5075179;28;20202;-82
2023/01/13 03:07:19;;;;;;;1.10;0.57;;;;;;;-145.69;100.00;52515.69;5074647;28;20206;-82
2023/01/13 03:09:55;;;;;;;4.13;0.60;;;;;;;-145.69;100.00;52541.44;5074888;28;20202;-81
2023/01/13 03:12:33;;;;;;;0.60;0.60;;;;;;;-145.69;100.00;52553.31;5074975;28;20561;-82
2023/01/13 03:15:09;;;;;;;1.97;0.60;;;;;;;-145.69;100.00;52501.81;5074885;28;20199;-82
2023/01/13 03:17:42;;;;;;;2.30;0.60;;;;;;;-145.69;100.00;52545.38;5074830;28;20198;-82
2023/01/13 03:20:15;;;;;;;1.37;0.60;;;;;;;-145.69;100.00;52559.25;5074729;28;20607;-82
2023/01/13 03:22:48;;;;;;;2.20;0.70;;;;;;;-145.69;100.00;52535.47;5074753;28;20210;-82
2023/01/13 03:25:22;;;;;;;1.17;0.57;;;;;;;-145.69;100.00;52533.50;5074200;28;20245;-83
2023/01/13 03:27:52;;;;;;;3.67;0.73;;;;;;;-145.69;100.00;52529.53;5075032;28;20203;-83
2023/01/13 03:30:23;;;;;;;2.00;0.53;;;;;;;-145.69;100.00;52511.72;5074826;28;20206;-82
2023/01/13 03:32:59;;;;;;;1.00;0.70;;;;;;;-145.69;100.00;52537.47;5074233;28;20191;-83
2023/01/13 03:35:29;;;;;;;2.50;0.50;;;;;;;-145.69;100.00;52541.44;5074637;28;20203;-84
2023/01/13 03:38:02;;;;;;;1.90;0.80;;;;;;;-145.69;100.00;52559.25;5074687;28;20203;-83
2023/01/13 03:40:33;;;;;;;0.87;0.60;;;;;;;-145.69;100.00;52547.38;5074735;28;20202;-82
2023/01/13 03:45:55;;;;;;;0.63;0.40;;;;;;;-145.69;100.00;52553.31;5073615;28;20356;-82
2023/01/13 03:48:25;;;;;;;1.27;0.67;;;;;;;-145.69;100.00;52503.81;5074790;28;20206;-82
2023/01/13 03:50:55;;;;;;;2.03;0.60;;;;;;;-145.69;100.00;52523.59;5074401;28;20209;-83
2023/01/13 03:53:26;;;;;;;3.30;0.90;;;;;;;-145.69;100.00;52543.41;5074072;28;20210;-83
2023/01/13 03:55:59;;;;;;;0.43;0.43;;;;;;;-145.69;100.00;52527.56;5074110;28;20225;-83
2023/01/13 03:58:29;;;;;;;1.25;0.55;;;;;;;-145.69;100.00;52537.47;5073102;28;20443;-81
2023/01/13 04:00:59;;;;;;;1.00;0.53;;;;;;;-145.69;100.00;52513.69;5074231;28;20561;-81
2023/01/13 04:03:34;;;;;;;0.33;0.33;;;;;;;-145.69;100.00;52559.25;5073999;28;20202;-82
2023/01/13 04:06:09;;;;;;;1.30;0.50;;;;;;;-145.69;100.00;52547.38;5073743;28;20229;-83
2023/01/13 04:08:41;;;;;;;1.10;0.60;;;;;;;-145.69;100.00;52551.31;5073992;28;20198;-83
2023/01/13 04:11:15;;;;;;;4.80;0.70;;;;;;;-145.69;100.00;52527.56;5074093;28;20206;-82
2023/01/13 04:13:44;;;;;;;0.83;0.57;;;;;;;-145.69;100.00;52523.59;5073901;28;20214;-83
2023/01/13 04:16:11;;;;;;;1.50;0.87;;;;;;;-145.69;100.00;52537.47;5073804;28;20213;-81
2023/01/13 04:18:40;;;;;;;1.73;1.10;;;;;;;-145.69;100.00;52535.47;5073863;28;20205;-82
2023/01/13 04:21:07;;;;;;;1.20;0.60;;;;;;;-145.69;100.00;52523.59;5073673;28;20195;-83
2023/01/13 04:23:33;;;;;;;1.13;0.50;;;;;;;-145.69;100.00;52547.38;5073709;28;20301;-83
2023/01/13 04:26:00;;;;;;;2.13;0.90;;;;;;;-145.69;100.00;52549.34;5073701;28;20578;-83
2023/01/13 04:28:27;;;;;;;1.03;0.60;;;;;;;-145.69;100.00;52573.13;5073022;28;20206;-83
2023/01/13 04:30:53;;;;;;;0.83;0.50;;;;;;;-145.69;100.00;52543.41;5073892;28;20198;-83
2023/01/13 04:33:20;;;;;;;1.00;0.60;;;;;;;-145.69;100.00;52491.91;5073519;28;20198;-83
2023/01/13 04:35:48;;;;;;;0.80;0.50;;;;;;;-145.69;100.00;52543.41;5073370;28;20213;-82
2023/01/13 04:38:17;;;;;;;1.17;0.60;;;;;;;-145.69;100.00;52547.38;5073243;28;20199;-83
2023/01/13 04:40:44;;;;;;;1.00;0.60;;;;;;;-145.69;100.00;52539.44;5073218;28;20199;-83
2023/01/13 04:43:11;;;;;;;0.50;0.50;;;;;;;-145.69;100.00;52545.38;5075223;28;20231;-83
2023/01/13 04:45:38;;;;;;;0.60;0.60;;;;;;;-145.69;100.00;52535.47;5084448;28;20218;-83
2023/01/13 04:48:04;;;;;;;0.70;0.40;;;;;;;-145.69;100.00;52535.47;5084827;28;20214;-83
2023/01/13 04:50:31;;;;;;;0.73;0.60;;;;;;;-145.69;100.00;52535.47;5075213;28;20218;-84
2023/01/13 04:53:00;;;;;;;0.57;0.40;;;;;;;-145.69;100.00;52535.47;5073036;28;20612;-83
2023/01/13 04:55:27;;;;;;;1.03;0.50;;;;;;;-145.69;100.00;52565.19;5073232;28;20227;-83
2023/01/13 04:57:53;;;;;;;1.07;0.60;;;;;;;-145.69;100.00;52575.09;5072635;28;20203;-84
2023/01/13 05:00:22;;;;;;;1.47;0.40;;;;;;;-145.69;100.00;52535.47;5073605;28;20206;-84
2023/01/13 05:02:49;;;;;;;1.13;0.50;;;;;;;-145.69;100.00;52561.22;5073282;28;20206;-83
2023/01/13 05:05:16;;;;;;;0.40;0.40;;;;;;;-145.69;100.00;52533.50;5073512;28;20202;-83
2023/01/13 05:07:43;;;;;;;0.67;0.60;;;;;;;-145.69;100.00;52549.34;5073280;28;20231;-84
2023/01/13 05:10:12;;;;;;;0.87;0.50;;;;;;;-145.69;100.00;52539.44;5073320;28;20191;-83
2023/01/13 05:18:06;;;;;;;0.40;0.40;;;;;;;-145.69;100.00;52543.41;5073561;28;20197;-83
2023/01/13 05:20:33;;;;;;;0.43;0.43;;;;;;;-145.69;100.00;52579.06;5073029;28;20190;-83
2023/01/13 05:25:47;;;;;;;6.57;0.60;;;;;;;-145.69;100.00;52555.28;5072950;28;20251;-82
2023/01/13 05:28:14;;;;;;;1.27;0.60;;;;;;;-145.69;100.00;52547.38;5072787;28;20195;-83
2023/01/13 05:30:42;;;;;;;1.47;0.40;;;;;;;-145.69;100.00;52571.13;5072993;28;21149;-83
2023/01/13 05:33:09;;;;;;;1.27;0.50;;;;;;;-145.69;100.00;52531.53;5073106;28;20202;-83
2023/01/13 05:35:38;;;;;;;1.67;0.70;;;;;;;-145.69;100.00;52541.44;5073621;28;20210;-84
2023/01/13 05:38:04;;;;;;;0.97;0.50;;;;;;;-145.69;100.00;52541.44;5073768;28;20197;-83
2023/01/13 05:43:23;;;;;;;0.60;0.50;;;;;;;-145.69;100.00;52539.44;5072764;28;20284;-82
2023/01/13 05:45:52;;;;;;;0.77;0.47;;;;;;;-145.69;100.00;52527.56;5073125;28;20564;-82
2023/01/13 05:48:21;;;;;;;0.73;0.40;;;;;;;-145.69;100.00;52515.69;5072937;28;20557;-82
2023/01/13 05:50:49;;;;;;;1.07;0.50;;;;;;;-145.69;100.00;52547.38;5072625;28;20207;-81
2023/01/13 05:53:16;;;;;;;0.50;0.50;;;;;;;-145.69;100.00;52529.53;5072373;28;20608;-83
2023/01/13 05:55:44;;;;;;;0.70;0.47;;;;;;;-145.69;100.00;52549.34;5072809;28;20209;-82
2023/01/13 05:58:12;;;;;;;1.13;0.50;;;;;;;-145.69;100.00;52563.22;5072476;28;20206;-83
2023/01/13 06:00:40;;;;;;;1.80;0.60;;;;;;;-145.69;100.00;52559.25;5071516;28;20203;-82
2023/01/13 06:03:07;;;;;;;0.30;0.30;;;;;;;-145.69;100.00;52511.72;5072307;28;20199;-82
2023/01/13 06:05:34;;;;;;;1.47;0.60;;;;;;;-145.69;100.00;52583.00;5072570;28;20212;-81
2023/01/13 06:08:03;;;;;;;0.57;0.57;;;;;;;-145.69;100.00;52557.28;5073095;28;20724;-82
2023/01/13 06:10:30;;;;;;;0.40;0.40;;;;;;;-145.69;100.00;52561.22;5076467;28;20199;-83
2023/01/13 06:12:56;;;;;;;0.70;0.40;;;;;;;-145.69;100.00;52551.31;5076328;28;20203;-81
2023/01/13 06:15:23;;;;;;;0.63;0.50;;;;;;;-145.69;100.00;52563.22;5076084;28;20202;-82
2023/01/13 06:17:51;;;;;;;0.57;0.57;;;;;;;-145.69;100.00;52547.38;5076206;28;20202;-82
2023/01/13 06:20:18;;;;;;;0.50;0.50;;;;;;;-145.69;100.00;52513.69;5075544;28;20202;-82
2023/01/13 06:22:49;;;;;;;2.03;0.43;;;;;;;-145.69;100.00;52553.31;5075798;28;20195;-83
2023/01/13 06:25:25;;;;;;;0.73;0.47;;;;;;;-145.69;100.00;52519.63;5075844;28;20206;-83
2023/01/13 06:27:54;;;;;;;0.50;0.50;;;;;;;-145.69;100.00;52535.47;5075775;28;20229;-82
2023/01/13 06:30:20;;;;;;;0.43;0.43;;;;;;;-145.69;100.00;52557.28;5076231;28;20653;-82
2023/01/13 06:32:53;;;;;;;1.87;0.50;;;;;;;-145.69;100.00;52525.59;5075257;28;20658;-83
2023/01/13 06:35:25;;;;;;;0.63;0.60;;;;;;;-145.69;100.00;52541.44;5076370;28;20653;-83
2023/01/13 06:37:55;;;;;;;0.43;0.43;;;;;;;-145.69;100.00;52535.47;5075666;28;20214;-82
2023/01/13 06:40:22;;;;;;;0.40;0.40;;;;;;;-145.69;100.00;52551.31;5075898;28;20202;-83
2023/01/13 06:45:33;;;;;;;0.60;0.40;;;;;;;-145.69;100.00;52525.59;5075825;28;20248;-83
2023/01/13 06:48:01;;;;;;;0.50;0.50;;;;;;;-145.69;100.00;52529.53;5075725;28;20231;-82
2023/01/13 06:50:28;;;;;;;0.70;0.60;;;;;;;-145.69;100.00;52543.41;5075309;28;20187;-83
2023/01/13 06:52:55;;;;;;;1.70;0.50;;;;;;;-145.69;100.00;52573.13;5073828;28;20202;-83
2023/01/13 06:55:21;;;;;;;0.50;0.50;;;;;;;-145.69;100.00;52527.56;5075577;28;20683;-81
2023/01/13 06:57:49;;;;;;;0.73;0.60;;;;;;;-145.69;100.00;52561.22;5075258;28;20728;-82
2023/01/13 07:00:16;;;;;;;0.60;0.50;;;;;;;-145.69;100.00;52555.28;5075216;28;20199;-83
2023/01/13 07:02:43;;;;;;;0.33;0.33;;;;;;;-145.69;100.00;52559.25;5075698;28;20203;-84
2023/01/13 07:05:11;;;;;;;0.60;0.57;;;;;;;-145.69;100.00;52563.22;5074681;28;20594;-83
2023/01/13 07:07:37;;;;;;;0.43;0.43;;;;;;;-145.69;100.00;52539.44;5075462;28;20249;-82
2023/01/13 07:10:04;;;;;;;0.40;0.40;;;;;;;-145.69;100.00;52547.38;5075469;28;20194;-83
2023/01/13 07:15:16;;;;;;;0.53;0.50;;;;;;;-145.69;100.00;52567.16;5076830;28;20202;-83
2023/01/13 07:15:19;;;;;;;0.30;0.30;;;;;;;-145.69;100.00;52543.41;5075018;28;20228;-83
2023/01/13 07:17:45;;;;;;;0.50;0.50;;;;;;;-145.69;100.00;52531.53;5075370;28;20203;-82
2023/01/13 07:20:13;;;;;;;0.43;0.43;;;;;;;-145.69;100.00;52547.38;5074139;28;20600;-83
2023/01/13 07:22:39;;;;;;;0.50;0.50;;;;;;;-145.69;100.00;52541.44;5075008;28;20565;-83
2023/01/13 07:25:07;;;;;;;0.70;0.50;;;;;;;-145.69;100.00;52533.50;5074899;28;20653;-83
2023/01/13 07:27:34;;;;;;;1.10;0.50;;;;;;;-145.69;100.00;52585.00;5075114;28;20584;-83
2023/01/13 07:30:00;;;;;;;0.83;0.60;;;;;;;-145.69;100.00;52557.28;5075055;28;20199;-83
2023/01/13 07:32:26;;;;;;;0.80;0.40;;;;;;;-145.69;100.00;52543.41;5075247;28;20202;-83
2023/01/13 07:34:53;;;;;;;0.30;0.30;;;;;;;-145.69;100.00;52563.22;5074858;28;20211;-82
2023/01/13 07:37:21;;;;;;;0.50;0.50;;;;;;;-145.69;100.00;52529.53;5074812;28;20206;-83
2023/01/13 07:39:49;;;;;;;0.50;0.50;;;;;;;-145.69;100.00;52497.84;5074491;28;20195;-81
2023/01/13 07:44:59;;;;;;;0.50;0.50;;;;;;;-145.69;100.00;52563.22;5074305;28;20202;-81
2023/01/13 07:47:25;;;;;;;0.63;0.40;;;;;;;-145.69;100.00;52541.44;5074210;28;20233;-82
2023/01/13 07:49:52;;;;;;;0.60;0.60;;;;;;;-145.69;100.00;52551.31;5073992;28;20221;-82
2023/01/13 07:52:18;;;;;;;0.43;0.43;;;;;;;-145.69;100.00;52563.22;5074556;28;20205;-83
2023/01/13 07:54:46;;;;;;;0.73;0.30;;;;;;;-145.69;100.00;52503.81;5075323;28;20199;-81
2023/01/13 07:57:12;;;;;;;12.60;5.50;;;;;;;-145.69;100.00;52555.28;5074286;28;20203;-83
2023/01/13 07:59:39;;;;;;;3.70;3.10;;;;;;;-145.69;100.00;52555.28;5074085;28;20280;-82
2023/01/13 08:02:06;;;;;;;2.53;0.50;;;;;;;-145.69;100.00;52577.06;5073961;28;20203;-82
2023/01/13 08:04:33;;;;;;;0.50;0.50;;;;;;;-145.69;100.00;52545.38;5073928;28;20231;-81
2023/01/13 08:07:00;;;;;;;0.60;0.47;;;;;;;-145.69;100.00;52513.69;5074161;28;20221;-82
2023/01/13 08:09:26;;;;;;;0.50;0.50;;;;;;;-145.69;100.00;52555.28;5072931;28;20550;-82
2023/01/13 08:13:16;;;;;;;0.60;0.60;;;;;;;-145.69;100.00;52559.25;5075397;28;20657;-83
2023/01/13 08:14:42;;;;;;;0.60;0.57;;;;;;;-145.69;100.00;52527.56;5075952;28;20202;-83
2023/01/13 08:17:09;;;;;;;1.17;0.70;;;;;;;-145.69;100.00;52527.56;5074372;28;20669;-84
2023/01/13 08:19:36;;;;;;;2.33;1.00;;;;;;;-145.69;100.00;52567.16;5076200;28;20206;-83
2023/01/13 08:22:02;;;;;;;0.60;0.60;;;;;;;-145.69;100.00;52551.31;5075480;28;20190;-83
2023/01/13 08:24:29;;;;;;;1.40;0.73;;;;;;;-145.69;100.00;52551.31;5076914;28;20732;-84
2023/01/13 08:26:56;;;;;;;0.73;0.73;;;;;;;-145.69;100.00;52515.69;5079866;28;20304;-84
2023/01/13 08:29:23;;;;;;;2.17;0.80;;;;;;;-145.69;100.00;52539.44;5079545;28;20203;-83
2023/01/13 08:31:49;;;;;;;0.97;0.83;;;;;;;-145.69;100.00;52523.59;5075971;28;20202;-83
2023/01/13 08:34:16;;;;;;;1.83;1.47;;;;;;;-145.69;100.00;52561.22;5074716;28;20198;-82
2023/01/13 08:36:42;;;;;;;3.30;0.93;;;;;;;-145.69;100.00;52545.38;5073632;28;20203;-81
2023/01/13 08:39:08;;;;;;;2.37;0.73;;;;;;;-145.69;100.00;52577.06;5072200;28;20616;-80
2023/01/13 08:44:21;;;;;;;1.40;0.80;;;;;;;-145.69;100.00;52531.53;5072900;28;20229;-80
2023/01/13 08:46:47;;;;;;;0.63;0.63;;;;;;;-145.69;100.00;52579.06;5073605;28;20219;-81
2023/01/13 08:49:14;;;;;;;1.53;0.73;;;;;;;-145.69;100.00;52549.34;5073315;28;20249;-82
2023/01/13 08:51:40;;;;;;;1.03;0.80;;;;;;;-145.69;100.00;52571.13;5073216;28;20206;-79
2023/01/13 08:54:06;;;;;;;0.83;0.70;;;;;;;-145.69;100.00;52547.38;5072222;28;20198;-78
2023/01/13 08:56:33;;;;;;;0.97;0.60;;;;;;;-145.69;100.00;52527.56;5072455;28;20218;-79
2023/01/13 08:59:00;;;;;;;0.50;0.50;;;;;;;-145.69;100.00;52551.31;5072800;28;20206;-80
2023/01/13 09:01:28;;;;;;;1.27;0.50;;;;;;;-145.69;100.00;52565.19;5073218;28;20199;-80
2023/01/13 09:03:54;;;;;;;0.60;0.60;;;;;;;-145.69;100.00;52515.69;5072079;28;20202;-79
2023/01/13 09:06:21;;;;;;;0.40;0.40;;;;;;;-145.69;100.00;52571.13;5072369;28;20194;-79
2023/01/13 09:08:47;;;;;;;1.60;0.70;;;;;;;-145.69;100.00;52557.28;5072584;28;20230;-79
2023/01/13 09:14:02;;;;;;;1.90;0.60;;;;;;;-145.69;100.00;52549.34;5072429;28;20197;-79
2023/01/13 09:16:30;;;;;;;0.57;0.57;;;;;;;-145.69;100.00;52565.19;5072404;28;20198;-77
2023/01/13 09:18:56;;;;;;;1.00;0.50;;;;;;;-145.69;100.00;52583.00;5072448;28;20198;-79
2023/01/13 09:21:23;;;;;;;0.60;0.60;;;;;;;-145.69;100.00;52531.53;5072391;28;20210;-80
2023/01/13 09:23:49;;;;;;;0.40;0.40;;;;;;;-145.69;100.00;52586.97;5076342;28;20199;-80
2023/01/13 09:26:19;;;;;;;0.60;0.60;;;;;;;-145.69;100.00;52579.06;5072074;28;20203;-80
2023/01/13 09:28:46;;;;;;;0.40;0.40;;;;;;;-145.69;100.00;52586.97;5070606;28;20234;-80
2023/01/13 09:31:13;;;;;;;0.40;0.40;;;;;;;-145.69;100.00;52555.28;5072100;28;20199;-80
2023/01/13 09:36:39;;;;;;;0.57;0.57;;;;;;;-145.69;100.00;52555.28;5041728;28;20264;-78
2023/01/13 09:39:06;;;;;;;0.57;0.50;;;;;;;-145.69;100.00;52527.56;5049540;28;20432;-78
2023/01/13 09:44:29;;;;;;;0.50;0.50;;;;;;;-145.69;100.00;52555.28;5075470;28;20275;-79
2023/01/13 09:47:00;;;;;;;0.67;0.60;;;;;;;-145.69;100.00;52539.44;5076637;28;20251;-79
2023/01/13 09:49:36;;;;;;;0.40;0.40;;;;;;;-145.69;100.00;52553.31;5076903;28;20202;-79
2023/01/13 09:52:07;;;;;;;0.40;0.40;;;;;;;-145.69;100.00;52543.41;5076258;28;20194;-78
2023/01/13 09:54:40;;;;;;;0.50;0.50;;;;;;;-145.69;100.00;52571.13;5076233;28;20202;-78
2023/01/13 09:57:10;;;;;;;0.70;0.60;;;;;;;-145.69;100.00;52588.97;5076546;28;20203;-80
2023/01/13 09:59:37;;;;;;;0.60;0.60;;;;;;;-145.69;100.00;52547.38;5076411;28;20198;-81
2023/01/13 10:02:23;;;;;;;0.50;0.50;;;;;;;-145.69;100.00;52535.47;5076291;28;20297;-79
2023/01/13 10:05:05;;;;;;;1.63;0.60;;;;;;;-145.69;100.00;52559.25;5075562;28;20191;-80
2023/01/13 10:07:37;;;;;;;0.40;0.40;;;;;;;-145.69;100.00;52539.44;5076038;28;20229;-81
2023/01/13 10:10:10;;;;;;;0.40;0.40;;;;;;;-145.69;100.00;52537.47;5076194;28;20222;-80
2023/01/13 10:15:24;;;;;;;0.77;0.70;;;;;;;-145.69;100.00;52551.31;5075769;28;20249;-79
2023/01/13 10:17:56;;;;;;;1.90;0.50;;;;;;;-145.69;100.00;52571.13;5075703;28;20441;-80
2023/01/13 10:20:29;;;;;;;1.50;0.80;;;;;;;-145.69;100.00;52551.31;5075978;28;20210;-80
2023/01/13 10:23:09;;;;;;;0.60;0.50;;;;;;;-145.69;100.00;52602.81;5075276;28;20565;-80
2023/01/13 10:25:54;;;;;;;1.10;0.77;;;;;;;-145.69;100.00;52579.06;5075471;28;20257;-80
2023/01/13 10:28:22;;;;;;;0.70;0.67;;;;;;;-145.69;100.00;52571.13;5075021;28;20241;-79
2023/01/13 10:30:49;;;;;;;0.60;0.60;;;;;;;-145.69;100.00;52535.47;5075672;28;20195;-80
2023/01/13 10:33:19;;;;;;;1.40;0.50;;;;;;;-145.69;100.00;52594.91;5075255;28;20676;-80
2023/01/13 10:35:59;;;;;;;0.70;0.67;;;;;;;-145.69;100.00;52535.47;5075512;28;20286;-79
2023/01/13 10:38:29;;;;;;;0.90;0.70;;;;;;;-145.69;100.00;52507.75;5075266;28;20198;-80
2023/01/13 10:40:57;;;;;;;0.73;0.50;;;;;;;-145.69;100.00;52535.47;5075226;28;20666;-79
2023/01/13 10:43:25;;;;;;;1.20;0.80;;;;;;;-145.69;100.00;52563.22;5074749;28;20588;-80
2023/01/13 10:45:57;;;;;;;1.03;0.60;;;;;;;-145.69;100.00;52535.47;5075132;28;20669;-79
2023/01/13 10:48:31;;;;;;;1.90;0.67;;;;;;;-145.69;100.00;52539.44;5075489;28;20321;-80
2023/01/13 10:51:09;;;;;;;0.63;0.50;;;;;;;-145.69;100.00;52519.63;5075212;28;20657;-80
2023/01/13 10:53:45;;;;;;;0.83;0.70;;;;;;;-145.69;100.00;52553.31;5075489;28;20252;-79
2023/01/13 10:56:16;;;;;;;1.07;0.60;;;;;;;-145.69;100.00;52551.31;5074293;28;20207;-80
2023/01/13 10:58:42;;;;;;;0.70;0.60;;;;;;;-145.69;100.00;52535.47;5074844;28;20198;-81
2023/01/13 11:01:24;;;;;;;0.97;0.60;;;;;;;-145.69;100.00;52507.75;5074874;28;20670;-80
2023/01/13 11:03:51;;;;;;;0.60;0.60;;;;;;;-145.69;100.00;52531.53;5073329;28;20248;-80
2023/01/13 11:06:26;;;;;;;0.40;0.40;;;;;;;-145.69;100.00;52531.53;5073804;28;20584;-80
2023/01/13 11:08:54;;;;;;;0.50;0.50;;;;;;;-145.69;100.00;52537.47;5075001;28;20230;-81
2023/01/13 11:11:38;;;;;;;3.73;0.63;;;;;;;-145.69;100.00;52531.53;5074576;28;20210;-80
2023/01/13 11:14:35;;;;;;;0.40;0.40;;;;;;;-145.69;100.00;52519.63;5074548;28;20542;-80
2023/01/13 11:17:19;;;;;;;1.00;0.80;;;;;;;-145.69;100.00;52553.31;5063570;28;20285;-80
2023/01/13 11:19:53;;;;;;;0.47;0.43;;;;;;;-145.69;100.00;52541.44;5072052;28;20195;-80
2023/01/13 11:22:25;;;;;;;1.20;0.50;;;;;;;-145.69;100.00;52523.59;5074467;28;20225;-81
2023/01/13 11:24:56;;;;;;;2.37;0.60;;;;;;;-145.69;100.00;52503.81;5074738;28;20203;-80
2023/01/13 11:27:30;;;;;;;1.57;0.50;;;;;;;-145.69;100.00;52553.31;5074300;28;20592;-80
2023/01/13 11:30:08;;;;;;;0.53;0.53;;;;;;;-145.69;100.00;52537.47;5074684;28;20195;-80
2023/01/13 11:32:40;;;;;;;3.20;0.53;;;;;;;-145.69;100.00;52497.84;5074323;28;20568;-79
2023/01/13 11:35:16;;;;;;;1.23;0.50;;;;;;;-145.69;100.00;52523.59;5074453;28;20198;-80
2023/01/13 11:37:51;;;;;;;0.40;0.40;;;;;;;-145.69;100.00;52519.63;5073975;28;20210;-81
2023/01/13 11:40:25;;;;;;;0.60;0.60;;;;;;;-145.69;100.00;52537.47;5074116;28;20288;-80
2023/01/13 11:42:59;;;;;;;0.50;0.40;;;;;;;-145.69;100.00;52517.66;5073325;28;20252;-80
2023/01/13 11:45:37;;;;;;;2.07;0.40;;;;;;;-145.69;100.00;52537.47;5070954;28;20194;-80
2023/01/13 11:48:04;;;;;;;1.80;0.67;;;;;;;-145.69;100.00;52509.75;5072100;28;20233;-78
2023/01/13 11:50:39;;;;;;;0.50;0.50;;;;;;;-145.69;100.00;52545.38;5072220;28;20199;-79
2023/01/13 11:53:19;;;;;;;0.40;0.40;;;;;;;-145.69;100.00;52563.22;5068127;28;20220;-78
2023/01/13 11:55:56;;;;;;;1.97;0.80;;;;;;;-145.69;100.00;52602.81;5053622;28;20226;-79
2023/01/13 11:58:39;;;;;;;2.80;0.93;;;;;;;-145.69;100.00;52614.72;5051158;28;20206;-78
2023/01/13 12:01:22;;;;;;;2.57;0.50;;;;;;;-145.69;100.00;52586.97;5065391;28;20654;-78
2023/01/13 12:03:58;;;;;;;0.87;0.87;;;;;;;-145.69;100.00;52614.72;5072616;28;20194;-77
2023/01/13 12:06:35;;;;;;;2.50;0.70;;;;;;;-145.69;100.00;52604.81;5073383;28;20201;-78